sensor_id;sensor_type;location;lat;lon;timestamp;P1;durP1;ratioP1;P2;durP2;ratioP2
4089;SDS011;2059;48.538;12.146;2023-02-11T00:03:11;53.83;;;32.50;;
4089;SDS011;2059;48.538;12.146;2023-02-11T00:08:14;45.40;;;29.87;;
4089;SDS011;2059;48.538;12.146;2023-02-11T00:13:16;54.00;;;33.20;;
4089;SDS011;2059;48.538;12.146;2023-02-11T00:18:17;49.17;;;29.90;;
4089;SDS011;2059;48.538;12.146;2023-02-11T00:23:20;50.53;;;31.80;;
4089;SDS011;2059;48.538;12.146;2023-02-11T00:28:22;46.13;;;28.80;;
4089;SDS011;2059;48.538;12.146;2023-02-11T00:33:24;46.60;;;30.30;;
4089;SDS011;2059;48.538;12.146;2023-02-11T00:38:27;50.40;;;30.40;;
4089;SDS011;2059;48.538;12.146;2023-02-11T00:43:29;45.37;;;29.40;;
4089;SDS011;2059;48.538;12.146;2023-02-11T00:48:31;46.60;;;28.50;;
4089;SDS011;2059;48.538;12.146;2023-02-11T00:53:34;48.87;;;31.50;;
4089;SDS011;2059;48.538;12.146;2023-02-11T00:58:36;45.40;;;30.17;;
4089;SDS011;2059;48.538;12.146;2023-02-11T01:03:38;47.73;;;30.40;;
4089;SDS011;2059;48.538;12.146;2023-02-11T01:08:42;46.17;;;30.20;;
4089;SDS011;2059;48.538;12.146;2023-02-11T01:13:44;47.93;;;30.37;;
4089;SDS011;2059;48.538;12.146;2023-02-11T01:18:46;47.10;;;30.10;;
4089;SDS011;2059;48.538;12.146;2023-02-11T01:23:49;45.70;;;29.30;;
4089;SDS011;2059;48.538;12.146;2023-02-11T01:28:51;43.47;;;28.87;;
4089;SDS011;2059;48.538;12.146;2023-02-11T01:33:53;47.20;;;29.80;;
4089;SDS011;2059;48.538;12.146;2023-02-11T01:38:56;49.00;;;30.47;;
4089;SDS011;2059;48.538;12.146;2023-02-11T01:43:58;47.00;;;30.37;;
4089;SDS011;2059;48.538;12.146;2023-02-11T01:49:16;48.07;;;30.03;;
4089;SDS011;2059;48.538;12.146;2023-02-11T01:54:23;48.33;;;30.70;;
4089;SDS011;2059;48.538;12.146;2023-02-11T01:59:47;49.60;;;28.53;;
4089;SDS011;2059;48.538;12.146;2023-02-11T02:04:57;47.20;;;28.73;;
4089;SDS011;2059;48.538;12.146;2023-02-11T02:10:05;49.53;;;30.33;;
4089;SDS011;2059;48.538;12.146;2023-02-11T02:15:22;48.30;;;30.47;;
4089;SDS011;2059;48.538;12.146;2023-02-11T02:31:53;47.53;;;29.80;;
4089;SDS011;2059;48.538;12.146;2023-02-11T02:37:39;45.97;;;28.60;;
4089;SDS011;2059;48.538;12.146;2023-02-11T02:42:46;44.83;;;28.97;;
4089;SDS011;2059;48.538;12.146;2023-02-11T02:47:49;47.03;;;28.23;;
4089;SDS011;2059;48.538;12.146;2023-02-11T02:52:54;44.90;;;28.10;;
4089;SDS011;2059;48.538;12.146;2023-02-11T02:58:04;44.57;;;29.00;;
4089;SDS011;2059;48.538;12.146;2023-02-11T03:03:21;48.50;;;28.40;;
4089;SDS011;2059;48.538;12.146;2023-02-11T03:08:31;42.80;;;28.83;;
4089;SDS011;2059;48.538;12.146;2023-02-11T03:13:38;44.00;;;28.17;;
4089;SDS011;2059;48.538;12.146;2023-02-11T03:18:42;49.30;;;28.80;;
4089;SDS011;2059;48.538;12.146;2023-02-11T03:23:51;47.47;;;29.90;;
4089;SDS011;2059;48.538;12.146;2023-02-11T03:28:57;46.50;;;29.10;;
4089;SDS011;2059;48.538;12.146;2023-02-11T03:34:03;49.23;;;28.87;;
4089;SDS011;2059;48.538;12.146;2023-02-11T03:39:10;43.83;;;28.47;;
4089;SDS011;2059;48.538;12.146;2023-02-11T03:44:14;40.23;;;25.43;;
4089;SDS011;2059;48.538;12.146;2023-02-11T03:49:18;42.20;;;27.40;;
4089;SDS011;2059;48.538;12.146;2023-02-11T03:54:25;41.67;;;26.70;;
4089;SDS011;2059;48.538;12.146;2023-02-11T03:59:30;44.90;;;27.50;;
4089;SDS011;2059;48.538;12.146;2023-02-11T04:04:32;62.07;;;35.53;;
4089;SDS011;2059;48.538;12.146;2023-02-11T04:09:35;50.50;;;30.03;;
4089;SDS011;2059;48.538;12.146;2023-02-11T04:14:36;48.70;;;28.13;;
4089;SDS011;2059;48.538;12.146;2023-02-11T04:19:38;44.80;;;27.83;;
4089;SDS011;2059;48.538;12.146;2023-02-11T04:24:44;40.10;;;26.60;;
4089;SDS011;2059;48.538;12.146;2023-02-11T04:29:46;38.83;;;26.70;;
4089;SDS011;2059;48.538;12.146;2023-02-11T04:34:47;45.67;;;28.80;;
4089;SDS011;2059;48.538;12.146;2023-02-11T04:39:50;44.30;;;29.13;;
4089;SDS011;2059;48.538;12.146;2023-02-11T04:44:52;43.03;;;27.20;;
4089;SDS011;2059;48.538;12.146;2023-02-11T04:49:54;42.00;;;27.20;;
4089;SDS011;2059;48.538;12.146;2023-02-11T04:54:57;51.07;;;28.00;;
4089;SDS011;2059;48.538;12.146;2023-02-11T04:59:59;37.47;;;25.47;;
4089;SDS011;2059;48.538;12.146;2023-02-11T05:05:04;37.90;;;25.13;;
4089;SDS011;2059;48.538;12.146;2023-02-11T05:10:08;36.87;;;22.77;;
4089;SDS011;2059;48.538;12.146;2023-02-11T05:15:10;34.97;;;22.73;;
4089;SDS011;2059;48.538;12.146;2023-02-11T05:20:11;36.80;;;23.67;;
4089;SDS011;2059;48.538;12.146;2023-02-11T05:25:15;36.53;;;22.23;;
4089;SDS011;2059;48.538;12.146;2023-02-11T05:30:16;36.47;;;23.30;;
4089;SDS011;2059;48.538;12.146;2023-02-11T05:35:19;38.10;;;24.70;;
4089;SDS011;2059;48.538;12.146;2023-02-11T05:40:22;41.60;;;23.30;;
4089;SDS011;2059;48.538;12.146;2023-02-11T05:45:24;34.27;;;23.40;;
4089;SDS011;2059;48.538;12.146;2023-02-11T05:50:26;37.67;;;24.10;;
4089;SDS011;2059;48.538;12.146;2023-02-11T05:55:29;36.23;;;22.67;;
4089;SDS011;2059;48.538;12.146;2023-02-11T06:00:31;36.60;;;24.17;;
4089;SDS011;2059;48.538;12.146;2023-02-11T06:05:33;45.50;;;28.47;;
4089;SDS011;2059;48.538;12.146;2023-02-11T06:10:36;52.23;;;28.40;;
4089;SDS011;2059;48.538;12.146;2023-02-11T06:15:41;36.67;;;22.60;;
4089;SDS011;2059;48.538;12.146;2023-02-11T06:20:43;37.07;;;24.13;;
4089;SDS011;2059;48.538;12.146;2023-02-11T06:25:46;39.13;;;23.73;;
4089;SDS011;2059;48.538;12.146;2023-02-11T06:30:48;34.33;;;23.00;;
4089;SDS011;2059;48.538;12.146;2023-02-11T06:35:50;33.07;;;22.80;;
4089;SDS011;2059;48.538;12.146;2023-02-11T06:40:53;35.93;;;23.70;;
4089;SDS011;2059;48.538;12.146;2023-02-11T06:45:55;38.33;;;23.73;;
4089;SDS011;2059;48.538;12.146;2023-02-11T06:51:00;33.10;;;22.53;;
4089;SDS011;2059;48.538;12.146;2023-02-11T06:56:05;33.17;;;22.33;;
4089;SDS011;2059;48.538;12.146;2023-02-11T07:01:09;37.67;;;23.50;;
4089;SDS011;2059;48.538;12.146;2023-02-11T07:06:20;31.80;;;21.53;;
4089;SDS011;2059;48.538;12.146;2023-02-11T07:11:27;35.80;;;22.77;;
4089;SDS011;2059;48.538;12.146;2023-02-11T07:16:30;35.80;;;23.30;;
4089;SDS011;2059;48.538;12.146;2023-02-11T07:21:33;31.70;;;21.97;;
4089;SDS011;2059;48.538;12.146;2023-02-11T07:26:39;32.57;;;20.97;;
4089;SDS011;2059;48.538;12.146;2023-02-11T07:32:02;33.20;;;21.63;;
4089;SDS011;2059;48.538;12.146;2023-02-11T07:37:21;27.50;;;20.67;;
4089;SDS011;2059;48.538;12.146;2023-02-11T07:42:24;28.43;;;20.80;;
4089;SDS011;2059;48.538;12.146;2023-02-11T07:47:26;32.63;;;22.77;;
4089;SDS011;2059;48.538;12.146;2023-02-11T07:52:28;31.53;;;21.17;;
4089;SDS011;2059;48.538;12.146;2023-02-11T07:57:31;32.80;;;20.63;;
4089;SDS011;2059;48.538;12.146;2023-02-11T08:02:33;30.63;;;19.70;;
4089;SDS011;2059;48.538;12.146;2023-02-11T08:07:35;29.00;;;20.80;;
4089;SDS011;2059;48.538;12.146;2023-02-11T08:12:38;26.10;;;19.10;;
4089;SDS011;2059;48.538;12.146;2023-02-11T08:17:40;31.13;;;19.10;;
4089;SDS011;2059;48.538;12.146;2023-02-11T08:22:41;25.73;;;19.00;;
4089;SDS011;2059;48.538;12.146;2023-02-11T08:27:45;25.40;;;18.50;;
4089;SDS011;2059;48.538;12.146;2023-02-11T08:32:46;25.03;;;16.97;;
4089;SDS011;2059;48.538;12.146;2023-02-11T08:37:48;28.10;;;17.80;;
4089;SDS011;2059;48.538;12.146;2023-02-11T08:42:51;20.70;;;16.43;;
4089;SDS011;2059;48.538;12.146;2023-02-11T08:47:53;25.73;;;17.40;;
4089;SDS011;2059;48.538;12.146;2023-02-11T08:52:55;31.23;;;16.90;;
4089;SDS011;2059;48.538;12.146;2023-02-11T08:57:58;22.63;;;16.27;;
4089;SDS011;2059;48.538;12.146;2023-02-11T09:03:00;20.60;;;16.30;;
4089;SDS011;2059;48.538;12.146;2023-02-11T09:08:02;23.63;;;17.53;;
4089;SDS011;2059;48.538;12.146;2023-02-11T09:13:05;22.50;;;17.27;;
4089;SDS011;2059;48.538;12.146;2023-02-11T09:18:07;22.87;;;16.87;;
4089;SDS011;2059;48.538;12.146;2023-02-11T09:23:09;20.80;;;15.67;;
4089;SDS011;2059;48.538;12.146;2023-02-11T09:28:13;23.60;;;15.83;;
4089;SDS011;2059;48.538;12.146;2023-02-11T09:39:16;20.87;;;15.40;;
4089;SDS011;2059;48.538;12.146;2023-02-11T09:44:21;24.47;;;16.00;;
4089;SDS011;2059;48.538;12.146;2023-02-11T09:49:28;18.73;;;14.93;;
4089;SDS011;2059;48.538;12.146;2023-02-11T09:54:35;19.50;;;15.43;;
4089;SDS011;2059;48.538;12.146;2023-02-11T09:59:44;26.87;;;16.50;;
4089;SDS011;2059;48.538;12.146;2023-02-11T10:04:55;21.07;;;15.27;;
4089;SDS011;2059;48.538;12.146;2023-02-11T10:10:18;19.23;;;14.63;;
4089;SDS011;2059;48.538;12.146;2023-02-11T10:15:33;23.13;;;16.03;;
4089;SDS011;2059;48.538;12.146;2023-02-11T10:20:45;20.67;;;15.50;;
4089;SDS011;2059;48.538;12.146;2023-02-11T10:25:55;19.97;;;15.20;;
4089;SDS011;2059;48.538;12.146;2023-02-11T10:30:59;21.80;;;16.07;;
4089;SDS011;2059;48.538;12.146;2023-02-11T10:36:03;19.43;;;15.07;;
4089;SDS011;2059;48.538;12.146;2023-02-11T10:41:05;23.73;;;16.23;;
4089;SDS011;2059;48.538;12.146;2023-02-11T10:46:13;23.20;;;16.10;;
4089;SDS011;2059;48.538;12.146;2023-02-11T10:51:19;21.80;;;15.53;;
4089;SDS011;2059;48.538;12.146;2023-02-11T10:56:23;20.80;;;14.97;;
4089;SDS011;2059;48.538;12.146;2023-02-11T11:01:42;20.20;;;15.13;;
4089;SDS011;2059;48.538;12.146;2023-02-11T11:06:46;19.40;;;15.87;;
4089;SDS011;2059;48.538;12.146;2023-02-11T11:11:49;21.10;;;14.47;;
4089;SDS011;2059;48.538;12.146;2023-02-11T11:16:54;22.17;;;14.50;;
4089;SDS011;2059;48.538;12.146;2023-02-11T11:21:56;22.23;;;14.00;;
4089;SDS011;2059;48.538;12.146;2023-02-11T11:26:58;15.73;;;13.13;;
4089;SDS011;2059;48.538;12.146;2023-02-11T11:32:04;18.60;;;12.83;;
4089;SDS011;2059;48.538;12.146;2023-02-11T11:37:12;16.77;;;12.73;;
4089;SDS011;2059;48.538;12.146;2023-02-11T11:42:26;20.17;;;13.93;;
4089;SDS011;2059;48.538;12.146;2023-02-11T11:47:34;18.00;;;12.60;;
4089;SDS011;2059;48.538;12.146;2023-02-11T11:52:40;16.50;;;12.87;;
4089;SDS011;2059;48.538;12.146;2023-02-11T11:57:46;19.70;;;13.70;;
4089;SDS011;2059;48.538;12.146;2023-02-11T12:02:58;16.43;;;14.40;;
4089;SDS011;2059;48.538;12.146;2023-02-11T12:08:21;17.70;;;15.40;;
4089;SDS011;2059;48.538;12.146;2023-02-11T12:13:34;18.40;;;13.17;;
4089;SDS011;2059;48.538;12.146;2023-02-11T12:18:49;14.70;;;12.10;;
4089;SDS011;2059;48.538;12.146;2023-02-11T12:24:15;15.87;;;12.83;;
4089;SDS011;2059;48.538;12.146;2023-02-11T12:29:32;14.83;;;11.30;;
4089;SDS011;2059;48.538;12.146;2023-02-11T12:34:44;13.27;;;11.13;;
4089;SDS011;2059;48.538;12.146;2023-02-11T12:39:58;22.07;;;14.47;;
4089;SDS011;2059;48.538;12.146;2023-02-11T12:45:13;13.63;;;11.40;;
4089;SDS011;2059;48.538;12.146;2023-02-11T12:50:23;17.47;;;12.37;;
4089;SDS011;2059;48.538;12.146;2023-02-11T12:55:33;12.13;;;10.83;;
4089;SDS011;2059;48.538;12.146;2023-02-11T13:00:39;13.97;;;11.70;;
4089;SDS011;2059;48.538;12.146;2023-02-11T13:05:49;14.70;;;10.63;;
4089;SDS011;2059;48.538;12.146;2023-02-11T13:10:54;15.33;;;13.73;;
4089;SDS011;2059;48.538;12.146;2023-02-11T13:15:59;15.73;;;12.70;;
4089;SDS011;2059;48.538;12.146;2023-02-11T13:26:36;18.80;;;14.50;;
4089;SDS011;2059;48.538;12.146;2023-02-11T13:31:43;15.27;;;13.70;;
4089;SDS011;2059;48.538;12.146;2023-02-11T13:36:55;17.00;;;14.90;;
4089;SDS011;2059;48.538;12.146;2023-02-11T13:42:00;18.63;;;14.93;;
4089;SDS011;2059;48.538;12.146;2023-02-11T13:47:04;16.10;;;14.40;;
4089;SDS011;2059;48.538;12.146;2023-02-11T13:52:17;15.47;;;13.90;;
4089;SDS011;2059;48.538;12.146;2023-02-11T13:57:29;14.73;;;13.17;;
4089;SDS011;2059;48.538;12.146;2023-02-11T14:02:38;15.07;;;13.57;;
4089;SDS011;2059;48.538;12.146;2023-02-11T14:08:16;14.50;;;12.60;;
4089;SDS011;2059;48.538;12.146;2023-02-11T14:19:19;16.97;;;15.17;;
4089;SDS011;2059;48.538;12.146;2023-02-11T14:24:50;19.83;;;15.70;;
4089;SDS011;2059;48.538;12.146;2023-02-11T14:35:47;17.07;;;13.10;;
4089;SDS011;2059;48.538;12.146;2023-02-11T14:41:03;14.50;;;12.93;;
4089;SDS011;2059;48.538;12.146;2023-02-11T14:46:08;16.20;;;12.73;;
4089;SDS011;2059;48.538;12.146;2023-02-11T14:51:12;16.70;;;13.00;;
4089;SDS011;2059;48.538;12.146;2023-02-11T14:56:19;17.17;;;14.20;;
4089;SDS011;2059;48.538;12.146;2023-02-11T15:01:27;15.83;;;13.50;;
4089;SDS011;2059;48.538;12.146;2023-02-11T15:06:34;16.40;;;12.80;;
4089;SDS011;2059;48.538;12.146;2023-02-11T15:11:40;14.73;;;12.93;;
4089;SDS011;2059;48.538;12.146;2023-02-11T15:16:44;18.10;;;11.93;;
4089;SDS011;2059;48.538;12.146;2023-02-11T15:21:47;13.77;;;12.27;;
4089;SDS011;2059;48.538;12.146;2023-02-11T15:26:59;13.47;;;12.00;;
4089;SDS011;2059;48.538;12.146;2023-02-11T15:32:06;15.00;;;12.67;;
4089;SDS011;2059;48.538;12.146;2023-02-11T15:37:15;16.27;;;14.20;;
4089;SDS011;2059;48.538;12.146;2023-02-11T15:42:23;17.73;;;14.70;;
4089;SDS011;2059;48.538;12.146;2023-02-11T15:47:28;15.40;;;12.60;;
4089;SDS011;2059;48.538;12.146;2023-02-11T15:52:29;17.73;;;15.13;;
4089;SDS011;2059;48.538;12.146;2023-02-11T15:57:33;16.67;;;13.90;;
4089;SDS011;2059;48.538;12.146;2023-02-11T16:02:35;21.77;;;13.90;;
4089;SDS011;2059;48.538;12.146;2023-02-11T16:07:45;21.80;;;16.10;;
4089;SDS011;2059;48.538;12.146;2023-02-11T16:12:54;20.00;;;17.07;;
4089;SDS011;2059;48.538;12.146;2023-02-11T16:18:03;16.03;;;14.33;;
4089;SDS011;2059;48.538;12.146;2023-02-11T16:23:16;18.60;;;14.80;;
4089;SDS011;2059;48.538;12.146;2023-02-11T16:28:23;17.47;;;14.00;;
4089;SDS011;2059;48.538;12.146;2023-02-11T16:33:26;17.40;;;13.93;;
4089;SDS011;2059;48.538;12.146;2023-02-11T16:38:30;19.57;;;14.40;;
4089;SDS011;2059;48.538;12.146;2023-02-11T16:43:34;19.97;;;15.83;;
4089;SDS011;2059;48.538;12.146;2023-02-11T16:48:36;25.40;;;19.10;;
4089;SDS011;2059;48.538;12.146;2023-02-11T16:58:48;20.90;;;16.57;;
4089;SDS011;2059;48.538;12.146;2023-02-11T17:03:50;19.87;;;15.73;;
4089;SDS011;2059;48.538;12.146;2023-02-11T17:08:53;20.10;;;15.13;;
4089;SDS011;2059;48.538;12.146;2023-02-11T17:13:56;18.33;;;14.43;;
4089;SDS011;2059;48.538;12.146;2023-02-11T17:18:57;16.70;;;14.50;;
4089;SDS011;2059;48.538;12.146;2023-02-11T17:23:59;19.43;;;16.10;;
4089;SDS011;2059;48.538;12.146;2023-02-11T17:29:03;18.93;;;15.77;;
4089;SDS011;2059;48.538;12.146;2023-02-11T17:34:05;21.00;;;17.40;;
4089;SDS011;2059;48.538;12.146;2023-02-11T17:39:08;21.90;;;18.03;;
4089;SDS011;2059;48.538;12.146;2023-02-11T17:44:11;19.47;;;15.77;;
4089;SDS011;2059;48.538;12.146;2023-02-11T17:49:14;18.10;;;15.00;;
4089;SDS011;2059;48.538;12.146;2023-02-11T17:54:17;20.83;;;15.93;;
4089;SDS011;2059;48.538;12.146;2023-02-11T17:59:21;24.07;;;15.77;;
4089;SDS011;2059;48.538;12.146;2023-02-11T18:04:24;19.07;;;15.50;;
4089;SDS011;2059;48.538;12.146;2023-02-11T18:09:26;20.93;;;16.60;;
4089;SDS011;2059;48.538;12.146;2023-02-11T18:14:29;17.63;;;14.57;;
4089;SDS011;2059;48.538;12.146;2023-02-11T18:19:30;20.00;;;16.77;;
4089;SDS011;2059;48.538;12.146;2023-02-11T18:24:34;22.00;;;16.70;;
4089;SDS011;2059;48.538;12.146;2023-02-11T18:29:38;22.97;;;16.30;;
4089;SDS011;2059;48.538;12.146;2023-02-11T18:34:39;20.00;;;16.53;;
4089;SDS011;2059;48.538;12.146;2023-02-11T18:39:41;20.87;;;16.30;;
4089;SDS011;2059;48.538;12.146;2023-02-11T18:44:44;19.10;;;15.10;;
4089;SDS011;2059;48.538;12.146;2023-02-11T18:49:47;19.80;;;16.37;;
4089;SDS011;2059;48.538;12.146;2023-02-11T18:54:49;22.00;;;15.37;;
4089;SDS011;2059;48.538;12.146;2023-02-11T18:59:52;21.10;;;17.10;;
4089;SDS011;2059;48.538;12.146;2023-02-11T19:04:54;20.80;;;14.20;;
4089;SDS011;2059;48.538;12.146;2023-02-11T19:09:56;22.43;;;16.20;;
4089;SDS011;2059;48.538;12.146;2023-02-11T19:14:59;21.23;;;15.83;;
4089;SDS011;2059;48.538;12.146;2023-02-11T19:20:01;22.07;;;16.37;;
4089;SDS011;2059;48.538;12.146;2023-02-11T19:25:05;19.50;;;15.20;;
4089;SDS011;2059;48.538;12.146;2023-02-11T19:30:09;22.03;;;16.97;;
4089;SDS011;2059;48.538;12.146;2023-02-11T19:35:11;21.70;;;16.07;;
4089;SDS011;2059;48.538;12.146;2023-02-11T19:40:13;20.87;;;16.17;;
4089;SDS011;2059;48.538;12.146;2023-02-11T19:45:17;22.33;;;17.07;;
4089;SDS011;2059;48.538;12.146;2023-02-11T19:50:18;24.93;;;17.90;;
4089;SDS011;2059;48.538;12.146;2023-02-11T19:55:20;22.13;;;17.00;;
4089;SDS011;2059;48.538;12.146;2023-02-11T20:00:24;20.10;;;16.50;;
4089;SDS011;2059;48.538;12.146;2023-02-11T20:05:25;25.10;;;17.23;;
4089;SDS011;2059;48.538;12.146;2023-02-11T20:10:27;21.63;;;18.03;;
4089;SDS011;2059;48.538;12.146;2023-02-11T20:15:30;22.63;;;17.17;;
4089;SDS011;2059;48.538;12.146;2023-02-11T20:20:32;29.77;;;21.17;;
4089;SDS011;2059;48.538;12.146;2023-02-11T20:25:37;26.63;;;19.10;;
4089;SDS011;2059;48.538;12.146;2023-02-11T20:30:40;28.90;;;19.83;;
4089;SDS011;2059;48.538;12.146;2023-02-11T20:35:42;23.43;;;19.13;;
4089;SDS011;2059;48.538;12.146;2023-02-11T20:40:44;22.53;;;18.43;;
4089;SDS011;2059;48.538;12.146;2023-02-11T20:45:47;27.57;;;19.10;;
4089;SDS011;2059;48.538;12.146;2023-02-11T20:50:49;24.83;;;19.20;;
4089;SDS011;2059;48.538;12.146;2023-02-11T20:55:51;24.37;;;19.20;;
4089;SDS011;2059;48.538;12.146;2023-02-11T21:00:54;24.27;;;19.00;;
4089;SDS011;2059;48.538;12.146;2023-02-11T21:05:56;25.00;;;18.97;;
4089;SDS011;2059;48.538;12.146;2023-02-11T21:10:58;23.87;;;17.70;;
4089;SDS011;2059;48.538;12.146;2023-02-11T21:16:02;24.23;;;18.37;;
4089;SDS011;2059;48.538;12.146;2023-02-11T21:21:05;24.17;;;19.67;;
4089;SDS011;2059;48.538;12.146;2023-02-11T21:26:07;25.17;;;19.00;;
4089;SDS011;2059;48.538;12.146;2023-02-11T21:31:13;22.40;;;18.23;;
4089;SDS011;2059;48.538;12.146;2023-02-11T21:36:18;22.57;;;17.83;;
4089;SDS011;2059;48.538;12.146;2023-02-11T21:41:21;21.47;;;17.53;;
4089;SDS011;2059;48.538;12.146;2023-02-11T21:46:25;23.10;;;18.10;;
4089;SDS011;2059;48.538;12.146;2023-02-11T21:51:27;22.87;;;18.20;;
4089;SDS011;2059;48.538;12.146;2023-02-11T21:56:29;23.97;;;17.90;;
4089;SDS011;2059;48.538;12.146;2023-02-11T22:01:33;20.40;;;17.40;;
4089;SDS011;2059;48.538;12.146;2023-02-11T22:06:35;25.37;;;18.93;;
4089;SDS011;2059;48.538;12.146;2023-02-11T22:11:38;24.90;;;18.07;;
4089;SDS011;2059;48.538;12.146;2023-02-11T22:16:41;25.07;;;18.73;;
4089;SDS011;2059;48.538;12.146;2023-02-11T22:21:44;23.87;;;18.23;;
4089;SDS011;2059;48.538;12.146;2023-02-11T22:26:46;24.10;;;18.40;;
4089;SDS011;2059;48.538;12.146;2023-02-11T22:31:49;26.00;;;18.43;;
4089;SDS011;2059;48.538;12.146;2023-02-11T22:36:51;24.43;;;19.47;;
4089;SDS011;2059;48.538;12.146;2023-02-11T22:41:53;22.97;;;18.73;;
4089;SDS011;2059;48.538;12.146;2023-02-11T22:46:57;23.03;;;18.77;;
4089;SDS011;2059;48.538;12.146;2023-02-11T22:51:59;24.90;;;19.33;;
4089;SDS011;2059;48.538;12.146;2023-02-11T22:57:01;29.83;;;20.10;;
4089;SDS011;2059;48.538;12.146;2023-02-11T23:02:04;24.07;;;19.43;;
4089;SDS011;2059;48.538;12.146;2023-02-11T23:07:06;26.80;;;19.90;;
4089;SDS011;2059;48.538;12.146;2023-02-11T23:12:07;24.40;;;18.30;;
4089;SDS011;2059;48.538;12.146;2023-02-11T23:17:11;23.90;;;18.43;;
4089;SDS011;2059;48.538;12.146;2023-02-11T23:22:12;28.37;;;19.30;;
4089;SDS011;2059;48.538;12.146;2023-02-11T23:27:14;26.90;;;20.00;;
4089;SDS011;2059;48.538;12.146;2023-02-11T23:32:17;28.17;;;20.23;;
4089;SDS011;2059;48.538;12.146;2023-02-11T23:37:19;25.23;;;18.83;;
4089;SDS011;2059;48.538;12.146;2023-02-11T23:42:22;26.30;;;19.13;;
4089;SDS011;2059;48.538;12.146;2023-02-11T23:47:25;31.43;;;18.43;;
4089;SDS011;2059;48.538;12.146;2023-02-11T23:52:27;28.17;;;20.40;;
4089;SDS011;2059;48.538;12.146;2023-02-11T23:57:30;26.10;;;19.23;;
